createdAt,value
2019-04-16T00:01:27.740Z,95402.08
2019-04-16T00:03:56.092Z,95401.05
2019-04-16T00:06:25.190Z,95401.23
2019-04-16T00:08:59.233Z,95401.88
2019-04-16T00:14:24.215Z,95398.80
2019-04-16T00:16:52.572Z,95399.30
2019-04-16T00:21:59.522Z,95389.84
2019-04-16T00:24:27.870Z,95386.05
2019-04-16T00:26:59.093Z,95383.96
2019-04-16T00:29:24.552Z,95381.52
2019-04-16T00:31:52.899Z,95375.75
2019-04-16T00:34:21.307Z,95379.64
2019-04-16T00:36:51.686Z,95380.97
2019-04-16T00:39:24.462Z,95380.37
2019-04-16T00:41:48.393Z,95376.94
2019-04-16T00:44:16.733Z,95378.38
2019-04-16T00:46:46.138Z,95372.73
2019-04-16T00:49:14.520Z,95370.77
2019-04-16T00:51:43.526Z,95369.92
2019-04-16T00:54:11.910Z,95372.55
2019-04-16T00:56:40.252Z,95372.41
2019-04-16T00:59:08.717Z,95373.52
2019-04-16T01:01:37.040Z,95376.72
2019-04-16T01:04:05.807Z,95373.09
2019-04-16T01:06:33.759Z,95369.67
2019-04-16T01:09:03.092Z,95373.08
2019-04-16T01:11:31.516Z,95376.97
2019-04-16T01:13:59.897Z,95374.72
2019-04-16T01:16:30.337Z,95374.46
2019-04-16T01:18:57.112Z,95380.77
2019-04-16T01:21:25.355Z,95381.56
2019-04-16T01:26:28.058Z,95380.86
2019-04-16T01:28:56.404Z,95382.23
2019-04-16T01:36:59.253Z,95380.34
2019-04-16T01:39:31.857Z,95379.44
2019-04-16T01:42:00.252Z,95380.60
2019-04-16T01:44:29.491Z,95383.04
2019-04-16T01:49:31.288Z,95388.08
2019-04-16T01:51:59.643Z,95388.25
2019-04-16T01:54:28.009Z,95382.34
2019-04-16T01:56:59.475Z,95382.02
2019-04-16T01:59:24.961Z,95379.77
2019-04-16T02:01:53.461Z,95373.98
2019-04-16T02:04:21.906Z,95375.88
2019-04-16T02:06:50.268Z,95373.90
2019-04-16T02:09:22.792Z,95375.58
2019-04-16T02:11:47.174Z,95375.75
2019-04-16T02:14:18.025Z,95376.44
2019-04-16T02:16:43.884Z,95375.18
2019-04-16T02:19:12.423Z,95373.94
2019-04-16T02:21:41.478Z,95375.17
2019-04-16T02:24:09.080Z,95381.87
2019-04-16T02:26:37.439Z,95381.16
2019-04-16T02:29:05.854Z,95383.24
2019-04-16T02:31:34.722Z,95382.67
2019-04-16T02:34:03.074Z,95381.84
2019-04-16T02:36:31.507Z,95380.44
2019-04-16T02:39:00.815Z,95380.87
2019-04-16T02:41:29.167Z,95387.83
2019-04-16T02:43:57.519Z,95386.58
2019-04-16T02:46:30.526Z,95391.66
2019-04-16T02:48:54.351Z,95399.23
2019-04-16T02:51:39.566Z,95394.92
2019-04-16T02:54:20.460Z,95394.08
2019-04-16T02:59:29.320Z,95393.20
2019-04-16T03:01:57.670Z,95400.20
2019-04-16T03:04:26.997Z,95401.47
2019-04-16T03:06:54.385Z,95401.14
2019-04-16T03:09:22.762Z,95400.58
2019-04-16T03:11:51.108Z,95404.89
2019-04-16T03:14:19.483Z,95403.81
2019-04-16T03:16:51.238Z,95404.25
2019-04-16T03:22:03.915Z,95393.11
2019-04-16T03:24:32.292Z,95395.20
2019-04-16T03:27:00.682Z,95384.73
2019-04-16T03:29:30.594Z,95390.59
2019-04-16T03:31:59.355Z,95387.26
2019-04-16T03:34:25.877Z,95390.61
2019-04-16T03:36:54.309Z,95387.74
2019-04-16T03:39:22.667Z,95388.05
2019-04-16T03:41:55.967Z,95383.03
2019-04-16T03:44:19.384Z,95381.52
2019-04-16T03:46:47.818Z,95384.52
2019-04-16T03:49:16.141Z,95382.45
2019-04-16T03:51:44.523Z,95382.33
2019-04-16T03:54:13.861Z,95385.04
2019-04-16T03:56:42.164Z,95387.84
2019-04-16T03:59:12.057Z,95391.08
2019-04-16T04:01:39.016Z,95390.78
2019-04-16T04:04:07.370Z,95389.11
2019-04-16T04:06:36.526Z,95391.52
2019-04-16T04:09:04.134Z,95392.91
2019-04-16T04:11:32.513Z,95397.66
2019-04-16T04:14:01.003Z,95391.37
2019-04-16T04:16:30.585Z,95398.75
2019-04-16T04:18:57.864Z,95394.16
2019-04-16T04:21:26.247Z,95393.67
2019-04-16T04:23:54.632Z,95397.98
2019-04-16T04:26:23.015Z,95400.15
2019-04-16T04:28:52.558Z,95400.60
2019-04-16T04:31:19.764Z,95402.59
2019-04-16T04:33:48.135Z,95403.31
2019-04-16T04:36:18.926Z,95404.45
2019-04-16T04:38:44.877Z,95410.58
2019-04-16T04:41:13.309Z,95415.58
2019-04-16T04:43:41.696Z,95411.53
2019-04-16T04:46:14.439Z,95412.47
2019-04-16T04:48:38.557Z,95411.36
2019-04-16T04:51:08.294Z,95416.02
2019-04-16T04:53:35.350Z,95412.23
2019-04-16T04:56:03.746Z,95413.77
2019-04-16T04:58:34.086Z,95416.91
2019-04-16T05:01:00.469Z,95419.36
2019-04-16T05:06:06.932Z,95425.77
2019-04-16T05:08:35.435Z,95427.36
2019-04-16T05:11:03.746Z,95434.63
2019-04-16T05:13:32.123Z,95437.19
2019-04-16T05:16:01.800Z,95432.89
2019-04-16T05:18:28.816Z,95431.83
2019-04-16T05:23:31.310Z,95427.50
2019-04-16T05:26:04.452Z,95429.31
2019-04-16T05:28:28.269Z,95430.34
2019-04-16T05:30:56.612Z,95426.70
2019-04-16T05:33:25.044Z,95433.91
2019-04-16T05:35:54.446Z,95434.81
2019-04-16T05:38:23.802Z,95433.97
2019-04-16T05:43:30.033Z,95443.95
2019-04-16T05:45:53.777Z,95446.02
2019-04-16T05:48:23.393Z,95446.59
2019-04-16T05:50:51.681Z,95448.90
2019-04-16T05:53:20.993Z,95443.62
2019-04-16T05:55:50.623Z,95439.94
2019-04-16T05:58:18.645Z,95445.66
2019-04-16T06:03:22.477Z,95442.98
2019-04-16T06:05:50.574Z,95449.27
2019-04-16T06:08:19.134Z,95449.95
2019-04-16T06:10:50.224Z,95447.60
2019-04-16T06:13:21.295Z,95449.34
2019-04-16T06:15:52.980Z,95442.62
2019-04-16T06:18:25.146Z,95442.36
2019-04-16T06:20:54.395Z,95445.20
2019-04-16T06:29:01.440Z,95446.06
2019-04-16T06:31:29.969Z,95448.90
2019-04-16T06:34:02.310Z,95450.70
2019-04-16T06:36:32.572Z,95442.80
2019-04-16T06:39:01.246Z,95447.48
2019-04-16T06:41:41.639Z,95443.19
2019-04-16T06:44:03.781Z,95447.98
2019-04-16T06:46:33.524Z,95449.47
2019-04-16T06:51:52.822Z,95452.11
2019-04-16T06:54:31.848Z,95445.75
2019-04-16T06:57:12.804Z,95443.05
2019-04-16T06:59:41.680Z,95448.52
2019-04-16T07:02:15.640Z,95449.94
2019-04-16T07:10:25.354Z,95449.95
2019-04-16T07:12:51.975Z,95451.70
2019-04-16T07:15:23.745Z,95448.73
2019-04-16T07:17:48.969Z,95446.08
2019-04-16T07:20:17.457Z,95440.77
2019-04-16T07:22:45.662Z,95441.88
2019-04-16T07:25:15.369Z,95447.84
2019-04-16T07:27:52.102Z,95447.56
2019-04-16T07:30:20.000Z,95445.23
2019-04-16T07:32:45.254Z,95443.84
2019-04-16T07:35:15.891Z,95442.53
2019-04-16T07:37:44.273Z,95441.83
2019-04-16T07:40:18.012Z,95445.08
2019-04-16T07:42:52.505Z,95447.72
2019-04-16T07:48:07.117Z,95450.03
2019-04-16T07:50:38.472Z,95447.98
2019-04-16T07:58:22.188Z,95448.94
2019-04-16T08:03:28.018Z,95445.19
2019-04-16T08:05:56.374Z,95449.06
2019-04-16T08:08:25.796Z,95449.92
2019-04-16T08:10:54.196Z,95445.33
2019-04-16T08:15:57.530Z,95446.47
2019-04-16T08:18:25.105Z,95448.31
2019-04-16T08:21:01.060Z,95445.89
2019-04-16T08:26:02.626Z,95448.05
2019-04-16T08:28:25.428Z,95449.45
2019-04-16T08:30:54.030Z,95452.33
2019-04-16T08:33:22.367Z,95460.42
2019-04-16T08:35:50.722Z,95454.38
2019-04-16T08:40:53.409Z,95454.28
2019-04-16T08:46:01.583Z,95456.95
2019-04-16T08:51:05.350Z,95454.98
2019-04-16T08:53:35.461Z,95460.60
2019-04-16T08:56:01.342Z,95462.53
2019-04-16T08:58:29.811Z,95458.45
2019-04-16T09:00:58.180Z,95457.87
2019-04-16T09:06:03.667Z,95454.69
2019-04-16T09:08:45.149Z,95455.20
2019-04-16T09:11:23.283Z,95460.19
2019-04-16T09:13:48.179Z,95456.55
2019-04-16T09:16:13.104Z,95454.03
2019-04-16T09:21:43.411Z,95449.12
2019-04-16T09:26:43.849Z,95455.36
2019-04-16T09:29:17.469Z,95451.68
2019-04-16T09:31:55.043Z,95448.99
2019-04-16T09:34:19.669Z,95438.09
2019-04-16T09:39:35.148Z,95429.54
2019-04-16T09:42:03.517Z,95429.23
2019-04-16T09:44:35.235Z,95428.47
2019-04-16T09:47:00.559Z,95427.78
2019-04-16T09:49:28.756Z,95426.58
2019-04-16T09:51:57.133Z,95418.39
2019-04-16T09:54:25.492Z,95421.55
2019-04-16T09:56:56.716Z,95414.81
2019-04-16T10:01:56.579Z,95414.52
2019-04-16T10:04:25.004Z,95428.41
2019-04-16T10:06:53.447Z,95412.02
2019-04-16T10:09:22.619Z,95412.97
2019-04-16T10:11:50.160Z,95410.12
2019-04-16T10:14:18.555Z,95407.38
2019-04-16T10:16:46.894Z,95407.45
2019-04-16T10:24:32.523Z,95407.47
2019-04-16T10:27:04.137Z,95400.89
2019-04-16T10:29:29.215Z,95403.66
2019-04-16T10:31:57.563Z,95406.73
2019-04-16T10:34:25.998Z,95399.85
2019-04-16T10:36:55.176Z,95402.19
2019-04-16T10:39:28.471Z,95403.77
2019-04-16T10:41:57.584Z,95398.72
2019-04-16T10:44:28.169Z,95392.92
2019-04-16T10:49:31.603Z,95392.34
2019-04-16T10:54:37.254Z,95390.86
2019-04-16T10:59:41.220Z,95388.53
2019-04-16T11:08:04.338Z,95378.15
2019-04-16T11:10:31.361Z,95384.73
2019-04-16T11:13:00.640Z,95379.04
2019-04-16T11:15:29.951Z,95381.86
2019-04-16T11:17:58.339Z,95380.23
2019-04-16T11:20:26.706Z,95386.71
2019-04-16T11:22:55.052Z,95382.53
2019-04-16T11:25:23.355Z,95381.02
2019-04-16T11:27:51.767Z,95372.98
2019-04-16T11:30:21.345Z,95378.73
2019-04-16T11:32:53.136Z,95369.61
2019-04-16T11:35:20.189Z,95370.28
2019-04-16T11:37:46.960Z,95365.41
2019-04-16T11:40:15.300Z,95371.83
2019-04-16T11:45:18.142Z,95362.27
2019-04-16T11:47:48.283Z,95361.77
2019-04-16T11:50:14.880Z,95355.84
2019-04-16T11:52:43.269Z,95358.44
2019-04-16T11:55:11.591Z,95356.97
2019-04-16T11:57:40.867Z,95356.07
2019-04-16T12:00:09.909Z,95358.56
2019-04-16T12:05:26.168Z,95357.73
2019-04-16T12:07:58.839Z,95353.77
2019-04-16T12:13:11.384Z,95346.92
2019-04-16T12:15:45.241Z,95346.43
2019-04-16T12:18:16.689Z,95339.14
2019-04-16T12:20:46.981Z,95342.81
2019-04-16T12:23:15.576Z,95343.95
2019-04-16T12:25:44.838Z,95344.28
2019-04-16T12:31:19.009Z,95344.19
2019-04-16T12:33:50.183Z,95344.92
2019-04-16T12:36:23.499Z,95342.88
2019-04-16T12:39:09.458Z,95346.04
2019-04-16T12:41:40.311Z,95341.30
2019-04-16T12:55:31.719Z,95337.54
2019-04-16T12:58:00.357Z,95345.30
2019-04-16T13:00:31.539Z,95345.36
2019-04-16T13:03:00.615Z,95335.13
2019-04-16T13:05:29.272Z,95335.06
2019-04-16T13:08:03.214Z,95337.44
2019-04-16T13:10:53.417Z,95337.66
2019-04-16T13:13:27.436Z,95336.40
2019-04-16T13:15:56.576Z,95337.66
2019-04-16T13:18:32.320Z,95335.39
2019-04-16T13:21:05.081Z,95333.69
2019-04-16T13:23:36.226Z,95325.86
2019-04-16T13:26:12.836Z,95332.28
2019-04-16T13:28:38.401Z,95326.57
2019-04-16T13:31:07.516Z,95329.70
2019-04-16T13:33:35.917Z,95325.88
2019-04-16T13:36:04.385Z,95329.97
2019-04-16T13:38:34.216Z,95325.72
2019-04-16T13:41:02.744Z,95323.49
2019-04-16T13:43:46.784Z,95327.69
2019-04-16T13:46:15.136Z,95329.16
2019-04-16T13:51:19.582Z,95320.09
2019-04-16T13:59:00.594Z,95313.98
2019-04-16T14:01:32.631Z,95313.50
2019-04-16T14:04:01.021Z,95318.99
2019-04-16T14:06:29.388Z,95316.67
2019-04-16T14:08:57.898Z,95316.75
2019-04-16T14:11:26.256Z,95313.06
2019-04-16T14:13:54.592Z,95309.22
2019-04-16T14:16:22.994Z,95315.03
2019-04-16T14:18:52.361Z,95314.23
2019-04-16T14:21:20.726Z,95321.11
2019-04-16T14:23:49.069Z,95328.94
2019-04-16T14:26:17.485Z,95328.16
2019-04-16T14:28:52.279Z,95323.48
2019-04-16T14:31:16.935Z,95322.25
2019-04-16T14:33:44.339Z,95318.93
2019-04-16T14:38:50.411Z,95321.95
2019-04-16T14:41:18.783Z,95328.91
2019-04-16T14:43:52.653Z,95322.95
2019-04-16T14:46:21.008Z,95321.10
2019-04-16T14:48:49.525Z,95320.65
2019-04-16T14:51:17.908Z,95323.76
2019-04-16T14:53:51.300Z,95324.03
2019-04-16T14:56:17.844Z,95326.61
2019-04-16T14:58:46.980Z,95328.73
2019-04-16T15:03:50.150Z,95331.68
2019-04-16T15:09:20.501Z,95329.55
2019-04-16T15:12:02.920Z,95332.02
2019-04-16T15:14:30.951Z,95333.47
2019-04-16T15:16:59.313Z,95339.91
2019-04-16T15:19:27.656Z,95343.13
2019-04-16T15:21:56.648Z,95347.48
2019-04-16T15:24:25.018Z,95345.70
2019-04-16T15:26:55.171Z,95343.85
2019-04-16T15:29:24.106Z,95346.23
2019-04-16T15:34:26.579Z,95348.94
2019-04-16T15:37:09.851Z,95349.63
2019-04-16T15:39:40.075Z,95353.25
2019-04-16T15:42:16.266Z,95351.44
2019-04-16T15:44:43.049Z,95354.77
2019-04-16T15:47:16.272Z,95355.11
2019-04-16T15:54:59.231Z,95355.39
2019-04-16T15:57:43.474Z,95357.42
2019-04-16T16:00:17.297Z,95357.31
2019-04-16T16:02:50.065Z,95359.34
2019-04-16T16:05:24.033Z,95356.84
2019-04-16T16:07:56.004Z,95358.16
2019-04-16T16:10:21.591Z,95362.30
2019-04-16T16:15:24.372Z,95366.17
2019-04-16T16:17:53.686Z,95368.50
2019-04-16T16:20:23.042Z,95365.07
2019-04-16T16:22:51.470Z,95369.69
2019-04-16T16:25:19.873Z,95369.91
2019-04-16T16:30:22.455Z,95374.05
2019-04-16T16:32:50.838Z,95376.84
2019-04-16T16:35:19.232Z,95373.67
2019-04-16T16:37:47.582Z,95374.78
2019-04-16T16:42:50.173Z,95379.92
2019-04-16T16:45:18.560Z,95381.77
2019-04-16T16:47:46.876Z,95380.87
2019-04-16T16:50:15.276Z,95385.97
2019-04-16T16:52:43.652Z,95387.05
2019-04-16T16:55:15.389Z,95391.50
2019-04-16T16:57:47.136Z,95389.73
2019-04-16T17:05:25.619Z,95400.52
2019-04-16T17:07:55.132Z,95404.02
2019-04-16T17:12:56.529Z,95411.11
2019-04-16T17:15:24.933Z,95408.72
2019-04-16T17:17:53.268Z,95407.32
2019-04-16T17:20:21.671Z,95410.02
2019-04-16T17:22:50.175Z,95414.48
2019-04-16T17:25:18.639Z,95415.53
2019-04-16T17:30:23.152Z,95417.50
2019-04-16T17:32:51.547Z,95419.47
2019-04-16T17:35:19.966Z,95421.84
2019-04-16T17:37:48.334Z,95420.66
2019-04-16T17:42:50.974Z,95433.96
2019-04-16T17:45:23.789Z,95437.23
2019-04-16T17:56:17.361Z,95447.20
2019-04-16T17:58:48.537Z,95446.58
2019-04-16T18:01:16.912Z,95451.61
2019-04-16T18:03:46.148Z,95460.05
2019-04-16T18:06:19.956Z,95458.05
2019-04-16T18:08:52.527Z,95458.55
2019-04-16T18:16:54.075Z,95475.20
2019-04-16T18:21:57.150Z,95477.60
2019-04-16T18:24:26.834Z,95480.87
2019-04-16T18:26:56.146Z,95477.09
2019-04-16T18:32:33.721Z,95483.78
2019-04-16T18:37:52.311Z,95490.02
2019-04-16T18:40:26.156Z,95494.45
2019-04-16T18:45:33.839Z,95495.78
2019-04-16T18:48:13.002Z,95499.53
2019-04-16T18:50:36.198Z,95503.99
2019-04-16T18:53:09.615Z,95507.33
2019-04-16T18:55:32.901Z,95510.43
2019-04-16T18:58:01.260Z,95514.94
2019-04-16T19:08:15.489Z,95522.56
2019-04-16T19:10:43.865Z,95529.64
2019-04-16T19:13:12.192Z,95539.56
2019-04-16T19:15:40.549Z,95540.72
2019-04-16T19:18:18.935Z,95551.44
2019-04-16T19:23:11.532Z,95560.03
2019-04-16T19:28:20.034Z,95561.31
2019-04-16T19:30:45.628Z,95565.17
2019-04-16T19:33:13.969Z,95570.22
2019-04-16T19:38:16.650Z,95566.73
2019-04-16T19:40:47.750Z,95561.25
2019-04-16T19:43:13.381Z,95567.17
2019-04-16T19:45:43.773Z,95569.84
2019-04-16T19:48:11.181Z,95574.41
2019-04-16T19:50:39.543Z,95573.41
2019-04-16T19:53:07.990Z,95580.20
2019-04-16T19:55:36.347Z,95577.66
2019-04-16T19:58:04.760Z,95577.15
2019-04-16T20:00:33.116Z,95578.53
2019-04-16T20:05:35.819Z,95581.33
2019-04-16T20:08:04.179Z,95574.53
2019-04-16T20:10:32.576Z,95580.80
2019-04-16T20:15:35.181Z,95588.01
2019-04-16T20:18:06.522Z,95590.69
2019-04-16T20:20:32.595Z,95587.98
2019-04-16T20:23:00.953Z,95588.23
2019-04-16T20:28:03.546Z,95592.46
2019-04-16T20:33:06.140Z,95587.66
2019-04-16T20:38:08.781Z,95589.03
2019-04-16T20:40:37.228Z,95587.70
2019-04-16T20:45:42.824Z,95583.80
2019-04-16T20:48:12.502Z,95580.53
2019-04-16T20:50:39.941Z,95582.25
2019-04-16T20:53:08.569Z,95581.02
2019-04-16T20:55:36.694Z,95583.03
2019-04-16T21:00:42.254Z,95584.10
2019-04-16T21:03:21.597Z,95585.09
2019-04-16T21:05:36.665Z,95584.72
2019-04-16T21:08:04.598Z,95585.31
2019-04-16T21:10:35.609Z,95585.45
2019-04-16T21:13:01.500Z,95587.00
2019-04-16T21:15:29.639Z,95585.65
2019-04-16T21:20:32.290Z,95589.38
2019-04-16T21:23:01.899Z,95599.32
2019-04-16T21:28:03.240Z,95598.77
2019-04-16T21:33:12.124Z,95602.45
2019-04-16T21:35:40.548Z,95604.89
2019-04-16T21:38:18.805Z,95603.51
2019-04-16T21:43:21.418Z,95614.12
2019-04-16T21:45:49.776Z,95613.97
2019-04-16T21:50:54.100Z,95614.66
2019-04-16T21:55:55.410Z,95620.31
2019-04-16T21:58:23.320Z,95616.92
2019-04-16T22:01:04.097Z,95622.52
2019-04-16T22:03:29.915Z,95621.46
2019-04-16T22:05:58.285Z,95625.92
2019-04-16T22:08:29.482Z,95624.15
2019-04-16T22:10:55.105Z,95629.23
2019-04-16T22:13:23.436Z,95624.59
2019-04-16T22:15:57.346Z,95623.16
2019-04-16T22:18:22.279Z,95624.01
2019-04-16T22:20:50.632Z,95629.20
2019-04-16T22:23:19.981Z,95639.02
2019-04-16T22:25:47.389Z,95635.81
2019-04-16T22:28:15.728Z,95634.37
2019-04-16T22:30:44.080Z,95635.17
2019-04-16T22:33:12.463Z,95639.48
2019-04-16T22:35:40.845Z,95644.75
2019-04-16T22:38:13.134Z,95642.83
2019-04-16T22:40:37.558Z,95639.17
2019-04-16T22:46:02.595Z,95646.20
2019-04-16T22:48:31.036Z,95649.36
2019-04-16T22:53:33.732Z,95655.27
2019-04-16T22:58:44.919Z,95654.63
2019-04-16T23:01:14.163Z,95653.56
2019-04-16T23:03:41.694Z,95653.80
2019-04-16T23:06:10.054Z,95659.44
2019-04-16T23:08:40.493Z,95656.78
2019-04-16T23:11:07.032Z,95660.13
2019-04-16T23:16:09.648Z,95663.34
2019-04-16T23:18:38.141Z,95661.04
2019-04-16T23:23:40.727Z,95665.33
2019-04-16T23:26:09.105Z,95669.16
2019-04-16T23:28:39.692Z,95673.85
2019-04-16T23:31:05.996Z,95684.00
2019-04-16T23:33:34.365Z,95686.12
2019-04-16T23:36:02.741Z,95679.61
2019-04-16T23:38:32.238Z,95676.08
2019-04-16T23:40:59.416Z,95688.59
2019-04-16T23:43:28.582Z,95686.73
2019-04-16T23:46:04.800Z,95686.90
2019-04-16T23:51:07.386Z,95680.59
2019-04-16T23:53:42.240Z,95681.33
2019-04-16T23:56:12.367Z,95690.97
2019-04-16T23:58:42.851Z,95689.80
